createdAt,value
2023-05-21T00:00:31.957Z,100.00
2023-05-21T00:04:33.870Z,100.00
2023-05-21T00:08:35.605Z,100.00
2023-05-21T00:12:37.316Z,100.00
2023-05-21T00:16:38.959Z,100.00
2023-05-21T00:20:41.627Z,100.00
2023-05-21T00:24:45.361Z,100.00
2023-05-21T00:28:47.010Z,100.00
2023-05-21T00:32:48.664Z,100.00
2023-05-21T00:36:50.262Z,100.00
2023-05-21T00:40:51.748Z,100.00
2023-05-21T00:44:56.962Z,100.00
2023-05-21T00:48:59.016Z,100.00
2023-05-21T00:53:00.783Z,100.00
2023-05-21T00:57:04.029Z,100.00
2023-05-21T01:01:06.867Z,100.00
2023-05-21T01:05:08.967Z,100.00
2023-05-21T01:09:10.532Z,100.00
2023-05-21T01:13:12.382Z,100.00
2023-05-21T01:17:14.639Z,100.00
2023-05-21T01:21:17.325Z,100.00
2023-05-21T01:27:02.346Z,100.00
2023-05-21T01:31:26.434Z,100.00
2023-05-21T01:35:32.857Z,100.00
2023-05-21T01:39:38.614Z,100.00
2023-05-21T01:43:43.862Z,100.00
2023-05-21T01:47:48.240Z,100.00
2023-05-21T01:51:49.978Z,100.00
2023-05-21T01:55:51.872Z,100.00
2023-05-21T01:59:53.706Z,100.00
2023-05-21T02:03:55.573Z,100.00
2023-05-21T02:07:57.214Z,100.00
2023-05-21T02:11:58.784Z,100.00
2023-05-21T02:16:01.570Z,100.00
2023-05-21T02:20:22.682Z,100.00
2023-05-21T02:24:24.480Z,100.00
2023-05-21T02:28:25.977Z,100.00
2023-05-21T02:32:27.540Z,100.00
2023-05-21T02:36:33.215Z,100.00
2023-05-21T02:40:34.884Z,100.00
2023-05-21T02:44:36.475Z,100.00
2023-05-21T02:48:37.998Z,100.00
2023-05-21T02:52:39.544Z,100.00
2023-05-21T02:56:41.431Z,100.00
2023-05-21T03:00:42.948Z,100.00
2023-05-21T03:04:47.824Z,100.00
2023-05-21T03:08:49.395Z,100.00
2023-05-21T03:12:50.979Z,100.00
2023-05-21T03:16:52.565Z,100.00
2023-05-21T03:20:54.154Z,100.00
2023-05-21T03:24:55.891Z,100.00
2023-05-21T03:28:57.546Z,100.00
2023-05-21T03:32:59.982Z,100.00
2023-05-21T03:37:01.560Z,100.00
2023-05-21T03:41:03.060Z,100.00
2023-05-21T03:45:04.943Z,100.00
2023-05-21T03:49:06.585Z,100.00
2023-05-21T03:53:10.706Z,100.00
2023-05-21T03:57:12.230Z,100.00
2023-05-21T04:01:13.727Z,100.00
2023-05-21T04:05:15.195Z,100.00
2023-05-21T04:09:16.852Z,100.00
2023-05-21T04:13:18.438Z,100.00
2023-05-21T04:17:20.788Z,100.00
2023-05-21T04:21:22.559Z,100.00
2023-05-21T04:25:25.316Z,100.00
2023-05-21T04:29:30.206Z,100.00
2023-05-21T04:33:31.713Z,100.00
2023-05-21T04:37:35.022Z,100.00
2023-05-21T04:41:36.737Z,100.00
2023-05-21T04:45:38.460Z,100.00
2023-05-21T04:49:40.375Z,100.00
2023-05-21T04:53:42.504Z,100.00
2023-05-21T04:57:44.020Z,100.00
2023-05-21T05:01:45.730Z,100.00
2023-05-21T05:05:47.591Z,100.00
2023-05-21T05:09:49.248Z,100.00
2023-05-21T05:13:52.243Z,100.00
2023-05-21T05:17:54.605Z,100.00
2023-05-21T05:21:56.268Z,100.00
2023-05-21T05:25:57.714Z,100.00
2023-05-21T05:29:59.199Z,100.00
2023-05-21T05:34:00.821Z,100.00
2023-05-21T05:38:02.326Z,100.00
2023-05-21T05:42:04.151Z,100.00
2023-05-21T05:46:05.628Z,100.00
2023-05-21T05:50:07.518Z,100.00
2023-05-21T05:54:08.977Z,100.00
2023-05-21T05:58:10.446Z,100.00
2023-05-21T06:02:12.066Z,100.00
2023-05-21T06:06:13.656Z,100.00
2023-05-21T06:10:15.340Z,100.00
2023-05-21T06:14:17.130Z,100.00
2023-05-21T06:18:18.632Z,100.00
2023-05-21T06:22:20.101Z,100.00
2023-05-21T06:26:21.919Z,100.00
2023-05-21T06:30:23.383Z,100.00
2023-05-21T06:34:25.479Z,100.00
2023-05-21T06:38:26.992Z,100.00
2023-05-21T06:42:28.440Z,100.00
2023-05-21T06:46:29.942Z,100.00
2023-05-21T06:50:31.495Z,100.00
2023-05-21T06:54:33.014Z,100.00
2023-05-21T06:58:34.603Z,100.00
2023-05-21T07:02:36.540Z,100.00
2023-05-21T07:06:39.128Z,100.00
2023-05-21T07:10:40.830Z,100.00
2023-05-21T07:14:42.257Z,100.00
2023-05-21T07:18:43.750Z,100.00
2023-05-21T07:22:45.368Z,100.00
2023-05-21T07:26:47.051Z,100.00
2023-05-21T07:30:48.611Z,100.00
2023-05-21T07:34:50.828Z,100.00
2023-05-21T07:38:53.105Z,100.00
2023-05-21T07:42:54.632Z,100.00
2023-05-21T07:46:56.227Z,100.00
2023-05-21T07:50:58.727Z,100.00
2023-05-21T07:55:01.581Z,100.00
2023-05-21T07:59:03.181Z,100.00
2023-05-21T08:03:07.565Z,100.00
2023-05-21T08:07:09.842Z,100.00
2023-05-21T08:11:11.472Z,100.00
2023-05-21T08:15:12.976Z,100.00
2023-05-21T08:19:14.641Z,100.00
2023-05-21T08:23:16.173Z,100.00
2023-05-21T08:27:17.648Z,100.00
2023-05-21T08:31:19.270Z,100.00
2023-05-21T08:35:20.950Z,100.00
2023-05-21T08:39:22.485Z,100.00
2023-05-21T08:43:29.141Z,100.00
2023-05-21T08:47:34.329Z,97.18
2023-05-21T08:51:36.030Z,95.29
2023-05-21T08:55:38.875Z,96.62
2023-05-21T08:59:44.131Z,87.96
2023-05-21T09:07:55.377Z,85.38
2023-05-21T09:11:56.892Z,84.10
2023-05-21T09:15:59.232Z,91.17
2023-05-21T09:20:16.629Z,81.97
2023-05-21T09:24:22.511Z,83.56
2023-05-21T09:28:25.038Z,83.68
2023-05-21T09:32:26.520Z,81.06
2023-05-21T09:36:29.604Z,76.35
2023-05-21T09:40:31.332Z,80.08
2023-05-21T09:44:32.997Z,72.07
2023-05-21T09:48:40.781Z,73.62
2023-05-21T09:52:42.415Z,71.34
2023-05-21T09:56:44.121Z,62.85
2023-05-21T10:00:45.908Z,68.40
2023-05-21T10:04:50.279Z,65.97
2023-05-21T10:08:56.641Z,61.33
2023-05-21T10:13:06.708Z,55.76
2023-05-21T10:17:09.321Z,50.77
2023-05-21T10:21:11.011Z,51.68
2023-05-21T10:25:13.195Z,50.82
2023-05-21T10:29:17.434Z,52.00
2023-05-21T10:33:24.157Z,48.15
2023-05-21T10:37:27.583Z,47.06
2023-05-21T10:41:36.052Z,45.72
2023-05-21T10:45:56.894Z,45.39
2023-05-21T10:50:08.589Z,44.90
2023-05-21T10:54:18.946Z,44.48
2023-05-21T10:58:44.128Z,43.94
2023-05-21T11:02:46.894Z,44.32
2023-05-21T11:06:48.836Z,45.06
2023-05-21T11:11:00.546Z,44.85
2023-05-21T11:15:02.275Z,47.88
2023-05-21T11:19:08.731Z,46.95
2023-05-21T11:23:11.388Z,46.72
2023-05-21T11:27:12.999Z,44.82
2023-05-21T11:31:27.847Z,44.62
2023-05-21T11:35:29.379Z,45.25
2023-05-21T11:39:40.204Z,42.00
2023-05-21T11:43:43.686Z,41.09
2023-05-21T11:47:46.872Z,40.46
2023-05-21T11:51:48.662Z,40.85
2023-05-21T11:55:50.906Z,40.03
2023-05-21T11:59:52.596Z,39.87
2023-05-21T12:03:54.160Z,38.96
2023-05-21T12:07:56.437Z,39.56
2023-05-21T12:11:58.108Z,39.54
2023-05-21T12:15:59.812Z,39.78
2023-05-21T12:20:04.998Z,36.62
2023-05-21T12:24:06.703Z,38.47
2023-05-21T12:28:08.910Z,40.93
2023-05-21T12:32:12.731Z,40.65
2023-05-21T12:36:27.238Z,42.06
2023-05-21T12:40:39.712Z,40.72
2023-05-21T12:44:47.903Z,40.00
2023-05-21T12:48:51.559Z,38.02
2023-05-21T12:52:58.351Z,39.09
2023-05-21T12:57:09.667Z,37.13
2023-05-21T13:01:12.389Z,40.12
2023-05-21T13:05:18.358Z,40.99
2023-05-21T13:09:19.885Z,40.37
2023-05-21T13:13:21.358Z,41.81
2023-05-21T13:17:24.679Z,41.86
2023-05-21T13:21:26.294Z,41.14
2023-05-21T13:25:29.134Z,37.71
2023-05-21T13:29:31.286Z,37.71
2023-05-21T13:33:32.904Z,38.93
2023-05-21T13:37:37.857Z,38.05
2023-05-21T13:41:39.384Z,38.90
2023-05-21T13:45:41.015Z,37.99
2023-05-21T13:49:42.722Z,37.54
2023-05-21T13:53:44.210Z,37.76
2023-05-21T13:57:46.259Z,39.13
2023-05-21T14:01:49.834Z,38.95
2023-05-21T14:05:53.650Z,40.10
2023-05-21T14:09:56.037Z,40.20
2023-05-21T14:13:58.483Z,41.11
2023-05-21T14:18:00.082Z,41.27
2023-05-21T14:22:02.092Z,42.45
2023-05-21T14:26:03.683Z,42.01
2023-05-21T14:30:05.728Z,41.31
2023-05-21T14:34:08.679Z,43.50
2023-05-21T14:38:11.113Z,43.45
2023-05-21T14:42:12.895Z,43.68
2023-05-21T14:46:14.368Z,43.58
2023-05-21T14:50:16.532Z,44.08
2023-05-21T14:54:18.046Z,42.81
2023-05-21T14:58:20.004Z,42.74
2023-05-21T15:02:22.382Z,43.33
2023-05-21T15:06:24.515Z,42.18
2023-05-21T15:10:27.482Z,43.50
2023-05-21T15:14:28.974Z,44.21
2023-05-21T15:18:30.536Z,43.03
2023-05-21T15:22:32.674Z,43.70
2023-05-21T15:26:34.125Z,45.73
2023-05-21T15:30:35.749Z,43.59
2023-05-21T15:34:37.409Z,43.50
2023-05-21T15:38:38.980Z,42.46
2023-05-21T15:42:40.698Z,43.49
2023-05-21T15:46:42.178Z,43.04
2023-05-21T15:50:43.679Z,42.87
2023-05-21T15:54:45.539Z,41.95
2023-05-21T15:58:47.035Z,42.77
2023-05-21T16:02:48.645Z,42.07
2023-05-21T16:06:50.319Z,41.25
2023-05-21T16:10:51.852Z,41.17
2023-05-21T16:14:56.053Z,41.56
2023-05-21T16:18:57.622Z,40.67
2023-05-21T16:22:59.134Z,41.08
2023-05-21T16:27:03.092Z,39.75
2023-05-21T16:31:04.928Z,40.08
2023-05-21T16:35:07.190Z,39.21
2023-05-21T16:39:14.862Z,39.66
2023-05-21T16:43:16.749Z,41.46
2023-05-21T16:47:24.329Z,41.22
2023-05-21T16:51:25.909Z,40.40
2023-05-21T16:55:27.401Z,40.03
2023-05-21T16:59:28.860Z,40.94
2023-05-21T17:03:32.376Z,40.68
2023-05-21T17:07:34.299Z,41.82
2023-05-21T17:11:36.075Z,41.65
2023-05-21T17:15:37.942Z,43.49
2023-05-21T17:19:39.754Z,43.28
2023-05-21T17:23:42.790Z,44.48
2023-05-21T17:27:47.517Z,45.08
2023-05-21T17:31:49.298Z,43.98
2023-05-21T17:35:50.959Z,45.73
2023-05-21T17:39:52.509Z,45.98
2023-05-21T17:43:54.305Z,46.26
2023-05-21T17:47:59.651Z,46.55
2023-05-21T17:52:04.387Z,46.76
2023-05-21T17:56:06.859Z,46.61
2023-05-21T18:00:09.032Z,46.22
2023-05-21T18:04:12.266Z,47.71
2023-05-21T18:08:14.316Z,48.29
2023-05-21T18:12:16.483Z,47.05
2023-05-21T18:16:18.494Z,48.40
2023-05-21T18:20:20.015Z,49.25
2023-05-21T18:24:21.537Z,48.58
2023-05-21T18:28:23.089Z,49.87
2023-05-21T18:32:24.927Z,49.62
2023-05-21T18:36:26.717Z,50.42
2023-05-21T18:40:30.606Z,50.20
2023-05-21T18:44:32.708Z,51.25
2023-05-21T18:48:34.197Z,51.02
2023-05-21T18:52:35.671Z,51.08
2023-05-21T18:56:37.222Z,52.66
2023-05-21T19:00:39.726Z,52.13
2023-05-21T19:04:41.553Z,52.88
2023-05-21T19:08:52.533Z,52.18
2023-05-21T19:12:54.147Z,52.65
2023-05-21T19:16:55.808Z,52.48
2023-05-21T19:20:57.562Z,53.89
2023-05-21T19:24:59.364Z,52.95
2023-05-21T19:29:01.060Z,52.33
2023-05-21T19:33:02.677Z,52.66
2023-05-21T19:37:04.514Z,53.69
2023-05-21T19:41:06.078Z,54.00
2023-05-21T19:45:09.576Z,53.43
2023-05-21T19:49:12.582Z,54.35
2023-05-21T19:53:14.052Z,54.81
2023-05-21T19:57:16.467Z,55.14
2023-05-21T20:01:18.692Z,55.25
2023-05-21T20:05:20.481Z,56.80
2023-05-21T20:09:22.065Z,55.82
2023-05-21T20:13:24.216Z,56.58
2023-05-21T20:17:25.700Z,54.82
2023-05-21T20:21:29.559Z,55.24
2023-05-21T20:25:31.063Z,54.39
2023-05-21T20:29:32.733Z,54.47
2023-05-21T20:33:35.161Z,54.75
2023-05-21T20:37:36.733Z,54.58
2023-05-21T20:41:38.681Z,53.71
2023-05-21T20:45:41.754Z,54.48
2023-05-21T20:49:43.777Z,53.94
2023-05-21T20:53:45.310Z,57.55
2023-05-21T20:57:47.238Z,55.45
2023-05-21T21:01:48.798Z,56.61
2023-05-21T21:05:50.646Z,55.39
2023-05-21T21:09:52.146Z,54.72
2023-05-21T21:13:53.715Z,55.08
2023-05-21T21:17:55.305Z,54.96
2023-05-21T21:21:56.925Z,55.04
2023-05-21T21:25:58.474Z,53.96
2023-05-21T21:29:59.975Z,54.64
2023-05-21T21:34:01.555Z,53.97
2023-05-21T21:38:05.140Z,55.24
2023-05-21T21:42:07.048Z,56.10
2023-05-21T21:46:08.773Z,55.03
2023-05-21T21:50:10.668Z,55.70
2023-05-21T21:54:12.291Z,56.93
2023-05-21T21:58:13.829Z,56.66
2023-05-21T22:02:17.822Z,57.10
2023-05-21T22:06:19.400Z,57.33
2023-05-21T22:10:21.223Z,56.85
2023-05-21T22:14:23.273Z,58.72
2023-05-21T22:18:38.841Z,58.80
2023-05-21T22:22:41.536Z,59.66
2023-05-21T22:26:43.633Z,60.44
2023-05-21T22:30:45.137Z,60.20
2023-05-21T22:34:46.753Z,60.86
2023-05-21T22:38:48.173Z,62.64
2023-05-21T22:42:49.675Z,63.28
2023-05-21T22:46:51.908Z,62.40
2023-05-21T22:50:54.391Z,62.75
2023-05-21T22:54:57.822Z,63.75
2023-05-21T22:58:59.541Z,62.99
2023-05-21T23:03:01.361Z,63.78
2023-05-21T23:07:03.060Z,64.32
2023-05-21T23:11:04.604Z,65.65
2023-05-21T23:15:07.481Z,66.24
2023-05-21T23:19:09.223Z,67.16
2023-05-21T23:23:11.270Z,66.84
2023-05-21T23:27:12.765Z,67.99
2023-05-21T23:31:14.384Z,67.36
2023-05-21T23:35:16.214Z,68.79
2023-05-21T23:39:18.357Z,68.16
2023-05-21T23:43:19.897Z,69.38
2023-05-21T23:47:21.394Z,69.17
2023-05-21T23:51:23.026Z,68.69
2023-05-21T23:55:24.521Z,68.90
2023-05-21T23:59:26.039Z,69.67
